createdAt,value
2023-05-18T00:00:10.917Z,6.56
2023-05-18T00:00:46.739Z,6.50
2023-05-18T00:01:19.571Z,6.50
2023-05-18T00:01:54.117Z,6.44
2023-05-18T00:02:26.804Z,6.44
2023-05-18T00:03:02.154Z,6.44
2023-05-18T00:03:36.343Z,6.38
2023-05-18T00:04:10.077Z,6.44
2023-05-18T00:04:44.269Z,6.44
2023-05-18T00:05:18.189Z,6.38
2023-05-18T00:05:50.792Z,6.38
2023-05-18T00:06:27.929Z,6.38
2023-05-18T00:07:03.586Z,6.31
2023-05-18T00:07:36.333Z,6.31
2023-05-18T00:08:10.251Z,6.31
2023-05-18T00:08:42.793Z,6.31
2023-05-18T00:09:15.308Z,6.31
2023-05-18T00:09:48.831Z,6.31
2023-05-18T00:10:21.544Z,6.31
2023-05-18T00:10:54.118Z,6.31
2023-05-18T00:11:27.715Z,6.31
2023-05-18T00:12:01.516Z,6.25
2023-05-18T00:12:34.071Z,6.25
2023-05-18T00:13:08.741Z,6.25
2023-05-18T00:13:41.272Z,6.25
2023-05-18T00:14:13.932Z,6.25
2023-05-18T00:14:49.497Z,6.25
2023-05-18T00:15:22.303Z,6.25
2023-05-18T00:15:54.925Z,6.25
2023-05-18T00:16:28.604Z,6.25
2023-05-18T00:17:01.925Z,6.25
2023-05-18T00:17:34.692Z,6.25
2023-05-18T00:18:08.650Z,6.31
2023-05-18T00:18:41.338Z,6.31
2023-05-18T00:19:14.977Z,6.31
2023-05-18T00:19:50.337Z,6.31
2023-05-18T00:20:26.548Z,6.25
2023-05-18T00:21:00.636Z,6.25
2023-05-18T00:21:35.689Z,6.31
2023-05-18T00:22:08.181Z,6.31
2023-05-18T00:22:42.799Z,6.31
2023-05-18T00:23:16.638Z,6.25
2023-05-18T00:23:50.534Z,6.25
2023-05-18T00:24:23.348Z,6.25
2023-05-18T00:24:56.886Z,6.25
2023-05-18T00:25:29.575Z,6.19
2023-05-18T00:26:02.840Z,6.19
2023-05-18T00:26:36.518Z,6.19
2023-05-18T00:27:09.092Z,6.19
2023-05-18T00:27:41.856Z,6.13
2023-05-18T00:28:14.624Z,6.13
2023-05-18T00:28:48.124Z,6.13
2023-05-18T00:29:20.778Z,6.13
2023-05-18T00:29:53.354Z,6.13
2023-05-18T00:30:26.913Z,6.13
2023-05-18T00:31:02.475Z,6.13
2023-05-18T00:31:36.428Z,6.06
2023-05-18T00:32:10.217Z,6.06
2023-05-18T00:32:43.081Z,6.06
2023-05-18T00:33:17.536Z,6.06
2023-05-18T00:33:51.075Z,6.06
2023-05-18T00:34:23.817Z,6.06
2023-05-18T00:34:56.361Z,6.06
2023-05-18T00:35:30.136Z,6.06
2023-05-18T00:36:02.886Z,6.06
2023-05-18T00:36:37.237Z,6.06
2023-05-18T00:37:10.806Z,6.06
2023-05-18T00:37:43.308Z,6.06
2023-05-18T00:38:16.549Z,6.06
2023-05-18T00:38:49.189Z,6.06
2023-05-18T00:39:22.753Z,6.06
2023-05-18T00:39:55.415Z,6.06
2023-05-18T00:40:29.337Z,6.06
2023-05-18T00:41:02.992Z,6.06
2023-05-18T00:41:36.292Z,6.06
2023-05-18T00:42:08.978Z,6.00
2023-05-18T00:42:41.569Z,6.00
2023-05-18T00:43:16.270Z,6.00
2023-05-18T00:43:49.273Z,6.06
2023-05-18T00:44:21.782Z,6.06
2023-05-18T00:44:55.328Z,6.06
2023-05-18T00:45:28.313Z,6.06
2023-05-18T00:46:01.503Z,6.06
2023-05-18T00:46:35.246Z,6.13
2023-05-18T00:47:08.480Z,6.13
2023-05-18T00:47:41.084Z,6.13
2023-05-18T00:48:14.879Z,6.13
2023-05-18T00:48:48.537Z,6.13
2023-05-18T00:49:21.562Z,6.19
2023-05-18T00:49:54.611Z,6.19
2023-05-18T00:50:28.566Z,6.19
2023-05-18T00:51:01.942Z,6.19
2023-05-18T00:51:37.076Z,6.19
2023-05-18T00:52:10.623Z,6.25
2023-05-18T00:52:44.046Z,6.25
2023-05-18T00:53:16.652Z,6.25
2023-05-18T00:53:51.066Z,6.25
2023-05-18T00:54:24.049Z,6.25
2023-05-18T00:54:58.370Z,6.25
2023-05-18T00:55:32.140Z,6.25
2023-05-18T00:56:06.425Z,6.25
2023-05-18T00:56:41.932Z,6.25
2023-05-18T00:57:16.050Z,6.25
2023-05-18T00:57:49.386Z,6.25
2023-05-18T00:58:21.958Z,6.25
2023-05-18T00:58:57.329Z,6.25
2023-05-18T00:59:32.820Z,6.19
2023-05-18T01:00:10.659Z,6.19
2023-05-18T01:00:44.655Z,6.19
2023-05-18T01:01:19.350Z,6.19
2023-05-18T01:01:52.433Z,6.19
2023-05-18T01:02:25.167Z,6.19
2023-05-18T01:02:59.792Z,6.19
2023-05-18T01:03:34.382Z,6.19
2023-05-18T01:04:07.760Z,6.13
2023-05-18T01:04:41.385Z,6.13
2023-05-18T01:05:14.053Z,6.13
2023-05-18T01:05:50.065Z,6.13
2023-05-18T01:06:25.505Z,6.13
2023-05-18T01:07:06.473Z,6.13
2023-05-18T01:07:39.704Z,6.13
2023-05-18T01:08:13.227Z,6.13
2023-05-18T01:08:45.812Z,6.13
2023-05-18T01:09:18.411Z,6.13
2023-05-18T01:09:52.010Z,6.13
2023-05-18T01:10:24.767Z,6.06
2023-05-18T01:11:05.588Z,6.06
2023-05-18T01:11:53.051Z,6.13
2023-05-18T01:12:31.472Z,6.13
2023-05-18T01:13:10.147Z,6.13
2023-05-18T01:13:55.452Z,6.13
2023-05-18T01:14:34.096Z,6.13
2023-05-18T01:15:10.822Z,6.13
2023-05-18T01:15:47.430Z,6.13
2023-05-18T01:16:26.961Z,6.06
2023-05-18T01:17:07.088Z,6.13
2023-05-18T01:17:51.850Z,6.06
2023-05-18T01:18:34.069Z,6.06
2023-05-18T01:19:24.932Z,6.06
2023-05-18T01:20:21.097Z,6.06
2023-05-18T01:20:59.767Z,6.06
2023-05-18T01:21:46.336Z,6.06
2023-05-18T01:22:33.602Z,6.06
2023-05-18T01:23:47.292Z,6.06
2023-05-18T01:24:26.974Z,6.06
2023-05-18T01:25:10.626Z,6.06
2023-05-18T01:25:51.265Z,6.06
2023-05-18T01:26:37.670Z,6.06
2023-05-18T01:27:14.353Z,6.06
2023-05-18T01:27:49.558Z,6.06
2023-05-18T01:28:26.518Z,6.06
2023-05-18T01:29:09.262Z,6.06
2023-05-18T01:29:43.625Z,6.06
2023-05-18T01:30:18.013Z,6.06
2023-05-18T01:30:51.112Z,6.06
2023-05-18T01:31:24.786Z,6.06
2023-05-18T01:31:58.308Z,6.06
2023-05-18T01:32:30.955Z,6.13
2023-05-18T01:33:09.411Z,6.13
2023-05-18T01:33:42.280Z,6.13
2023-05-18T01:34:14.922Z,6.13
2023-05-18T01:34:48.617Z,6.13
2023-05-18T01:35:21.539Z,6.13
2023-05-18T01:35:54.164Z,6.13
2023-05-18T01:36:28.112Z,6.13
2023-05-18T01:37:00.708Z,6.13
2023-05-18T01:37:33.308Z,6.13
2023-05-18T01:38:05.820Z,6.19
2023-05-18T01:38:41.651Z,6.13
2023-05-18T01:39:16.322Z,6.19
2023-05-18T01:39:48.829Z,6.13
2023-05-18T01:40:22.450Z,6.19
2023-05-18T01:41:02.220Z,6.19
2023-05-18T01:41:42.834Z,6.19
2023-05-18T01:42:23.652Z,6.19
2023-05-18T01:43:03.382Z,6.19
2023-05-18T01:43:39.001Z,6.19
2023-05-18T01:44:15.951Z,6.19
2023-05-18T01:44:54.240Z,6.19
2023-05-18T01:45:29.335Z,6.19
2023-05-18T01:46:09.093Z,6.19
2023-05-18T01:46:47.685Z,6.19
2023-05-18T01:47:20.506Z,6.19
2023-05-18T01:47:57.188Z,6.19
2023-05-18T01:48:31.682Z,6.13
2023-05-18T01:49:12.007Z,6.19
2023-05-18T01:49:51.502Z,6.13
2023-05-18T01:50:32.536Z,6.13
2023-05-18T01:51:06.423Z,6.13
2023-05-18T01:51:45.499Z,6.19
2023-05-18T01:52:22.621Z,6.19
2023-05-18T01:53:00.586Z,6.19
2023-05-18T01:53:40.179Z,6.19
2023-05-18T01:54:16.577Z,6.19
2023-05-18T01:54:54.960Z,6.19
2023-05-18T01:55:30.934Z,6.13
2023-05-18T01:56:07.123Z,6.13
2023-05-18T01:56:43.446Z,6.13
2023-05-18T01:57:18.887Z,6.13
2023-05-18T01:57:54.352Z,6.13
2023-05-18T01:58:28.947Z,6.13
2023-05-18T01:59:02.117Z,6.13
2023-05-18T01:59:35.983Z,6.13
2023-05-18T02:00:10.825Z,6.13
2023-05-18T02:00:49.822Z,6.13
2023-05-18T02:01:24.002Z,6.13
2023-05-18T02:02:00.893Z,6.06
2023-05-18T02:02:34.056Z,6.06
2023-05-18T02:03:06.857Z,6.06
2023-05-18T02:03:40.694Z,6.06
2023-05-18T02:04:13.387Z,6.06
2023-05-18T02:04:46.099Z,6.06
2023-05-18T02:05:19.842Z,6.06
2023-05-18T02:05:53.564Z,6.06
2023-05-18T02:06:26.154Z,6.06
2023-05-18T02:06:58.754Z,6.06
2023-05-18T02:07:32.273Z,6.06
2023-05-18T02:08:05.442Z,6.06
2023-05-18T02:08:38.821Z,6.06
2023-05-18T02:09:12.351Z,6.06
2023-05-18T02:09:45.570Z,6.06
2023-05-18T02:10:18.238Z,6.06
2023-05-18T02:10:51.959Z,6.06
2023-05-18T02:11:24.598Z,6.06
2023-05-18T02:11:59.548Z,6.06
2023-05-18T02:12:32.331Z,6.06
2023-05-18T02:13:04.898Z,6.06
2023-05-18T02:13:37.642Z,6.06
2023-05-18T02:14:11.407Z,6.00
2023-05-18T02:14:43.992Z,6.00
2023-05-18T02:15:16.549Z,6.00
2023-05-18T02:15:50.111Z,6.00
2023-05-18T02:16:22.909Z,6.00
2023-05-18T02:16:57.642Z,6.00
2023-05-18T02:17:30.221Z,6.00
2023-05-18T02:18:03.767Z,6.00
2023-05-18T02:18:38.572Z,6.00
2023-05-18T02:19:11.987Z,6.00
2023-05-18T02:19:45.502Z,6.00
2023-05-18T02:20:18.531Z,6.00
2023-05-18T02:20:51.118Z,6.00
2023-05-18T02:21:25.984Z,6.00
2023-05-18T02:21:58.659Z,6.00
2023-05-18T02:22:31.155Z,6.00
2023-05-18T02:23:03.718Z,6.00
2023-05-18T02:23:37.518Z,5.94
2023-05-18T02:24:10.068Z,6.00
2023-05-18T02:24:42.614Z,5.94
2023-05-18T02:25:15.368Z,5.94
2023-05-18T02:25:48.911Z,5.94
2023-05-18T02:26:21.510Z,5.94
2023-05-18T02:26:59.635Z,6.00
2023-05-18T02:27:35.026Z,5.94
2023-05-18T02:28:07.583Z,5.94
2023-05-18T02:28:40.472Z,5.94
2023-05-18T02:29:14.787Z,5.94
2023-05-18T02:29:47.402Z,5.94
2023-05-18T02:30:20.479Z,5.94
2023-05-18T02:30:53.986Z,5.94
2023-05-18T02:31:29.553Z,5.94
2023-05-18T02:32:02.219Z,5.94
2023-05-18T02:32:38.279Z,5.94
2023-05-18T02:33:12.077Z,5.94
2023-05-18T02:33:44.650Z,5.94
2023-05-18T02:34:18.782Z,5.94
2023-05-18T02:34:52.990Z,5.94
2023-05-18T02:35:26.246Z,5.94
2023-05-18T02:35:59.786Z,5.94
2023-05-18T02:36:37.361Z,5.94
2023-05-18T02:37:10.661Z,5.94
2023-05-18T02:37:44.762Z,5.94
2023-05-18T02:38:17.320Z,5.94
2023-05-18T02:38:49.908Z,5.88
2023-05-18T02:39:23.401Z,5.88
2023-05-18T02:39:57.115Z,5.88
2023-05-18T02:40:30.876Z,5.88
2023-05-18T02:41:04.514Z,5.88
2023-05-18T02:41:37.643Z,5.88
2023-05-18T02:42:11.603Z,5.88
2023-05-18T02:42:44.134Z,5.88
2023-05-18T02:43:18.027Z,5.88
2023-05-18T02:43:50.975Z,5.88
2023-05-18T02:44:25.179Z,5.88
2023-05-18T02:44:58.806Z,5.88
2023-05-18T02:45:31.630Z,5.88
2023-05-18T02:46:05.280Z,5.88
2023-05-18T02:46:40.013Z,5.88
2023-05-18T02:47:12.934Z,5.88
2023-05-18T02:47:45.510Z,5.88
2023-05-18T02:48:18.097Z,5.88
2023-05-18T02:48:51.611Z,5.88
2023-05-18T02:49:24.119Z,5.88
2023-05-18T02:49:57.472Z,5.88
2023-05-18T02:50:31.243Z,5.88
2023-05-18T02:51:03.882Z,5.88
2023-05-18T02:51:37.361Z,5.88
2023-05-18T02:52:11.010Z,5.88
2023-05-18T02:52:45.477Z,5.88
2023-05-18T02:53:18.346Z,5.88
2023-05-18T02:53:52.315Z,5.88
2023-05-18T02:54:25.615Z,5.81
2023-05-18T02:54:58.132Z,5.81
2023-05-18T02:55:48.708Z,5.81
2023-05-18T02:56:26.262Z,5.81
2023-05-18T02:57:05.939Z,5.81
2023-05-18T02:57:57.081Z,5.75
2023-05-18T02:58:37.953Z,5.75
2023-05-18T02:59:16.814Z,5.75
2023-05-18T02:59:51.352Z,5.75
2023-05-18T03:00:24.194Z,5.75
2023-05-18T03:00:56.988Z,5.75
2023-05-18T03:01:31.298Z,5.75
2023-05-18T03:02:04.098Z,5.69
2023-05-18T03:02:38.918Z,5.69
2023-05-18T03:03:15.797Z,5.69
2023-05-18T03:03:48.968Z,5.69
2023-05-18T03:04:22.009Z,5.69
2023-05-18T03:04:59.205Z,5.69
2023-05-18T03:05:31.973Z,5.69
2023-05-18T03:06:05.471Z,5.69
2023-05-18T03:06:40.216Z,5.69
2023-05-18T03:07:12.775Z,5.69
2023-05-18T03:07:50.807Z,5.69
2023-05-18T03:08:26.846Z,5.69
2023-05-18T03:08:59.500Z,5.69
2023-05-18T03:09:41.180Z,5.63
2023-05-18T03:10:15.083Z,5.69
2023-05-18T03:10:47.640Z,5.69
2023-05-18T03:11:20.205Z,5.69
2023-05-18T03:11:53.487Z,5.69
2023-05-18T03:12:27.272Z,5.69
2023-05-18T03:13:01.352Z,5.69
2023-05-18T03:13:33.889Z,5.69
2023-05-18T03:14:07.452Z,5.69
2023-05-18T03:14:39.991Z,5.69
2023-05-18T03:15:13.898Z,5.69
2023-05-18T03:15:48.016Z,5.69
2023-05-18T03:16:20.524Z,5.69
2023-05-18T03:16:54.428Z,5.69
2023-05-18T03:17:29.210Z,5.69
2023-05-18T03:18:02.813Z,5.69
2023-05-18T03:18:35.502Z,5.69
2023-05-18T03:19:08.231Z,5.69
2023-05-18T03:19:44.977Z,5.69
2023-05-18T03:20:18.486Z,5.69
2023-05-18T03:20:52.196Z,5.69
2023-05-18T03:21:25.888Z,5.69
2023-05-18T03:21:58.529Z,5.63
2023-05-18T03:22:31.470Z,5.63
2023-05-18T03:23:03.976Z,5.63
2023-05-18T03:23:38.462Z,5.63
2023-05-18T03:24:14.581Z,5.63
2023-05-18T03:24:51.202Z,5.63
2023-05-18T03:25:25.615Z,5.63
2023-05-18T03:25:58.304Z,5.63
2023-05-18T03:26:33.783Z,5.63
2023-05-18T03:27:07.711Z,5.63
2023-05-18T03:27:40.282Z,5.63
2023-05-18T03:28:15.145Z,5.63
2023-05-18T03:28:47.771Z,5.63
2023-05-18T03:29:21.038Z,5.56
2023-05-18T03:29:56.516Z,5.56
2023-05-18T03:30:29.058Z,5.56
2023-05-18T03:31:01.691Z,5.56
2023-05-18T03:31:35.965Z,5.56
2023-05-18T03:32:09.061Z,5.56
2023-05-18T03:32:42.474Z,5.56
2023-05-18T03:33:16.731Z,5.56
2023-05-18T03:33:50.141Z,5.56
2023-05-18T03:34:23.168Z,5.56
2023-05-18T03:34:55.992Z,5.56
2023-05-18T03:35:30.429Z,5.56
2023-05-18T03:36:04.918Z,5.56
2023-05-18T03:36:38.977Z,5.56
2023-05-18T03:37:11.672Z,5.56
2023-05-18T03:37:44.870Z,5.56
2023-05-18T03:38:17.597Z,5.56
2023-05-18T03:38:56.222Z,5.50
2023-05-18T03:39:29.241Z,5.50
2023-05-18T03:40:10.841Z,5.50
2023-05-18T03:40:44.500Z,5.50
2023-05-18T03:41:17.243Z,5.50
2023-05-18T03:41:49.869Z,5.50
2023-05-18T03:42:23.458Z,5.50
2023-05-18T03:42:56.040Z,5.50
2023-05-18T03:43:32.496Z,5.50
2023-05-18T03:44:07.329Z,5.50
2023-05-18T03:44:40.485Z,5.50
2023-05-18T03:45:13.444Z,5.44
2023-05-18T03:45:46.989Z,5.44
2023-05-18T03:46:19.592Z,5.44
2023-05-18T03:46:52.321Z,5.44
2023-05-18T03:47:25.899Z,5.44
2023-05-18T03:47:58.762Z,5.44
2023-05-18T03:48:31.349Z,5.44
2023-05-18T03:49:07.729Z,5.44
2023-05-18T03:49:44.656Z,5.44
2023-05-18T03:50:17.888Z,5.44
2023-05-18T03:50:51.795Z,5.44
2023-05-18T03:51:24.441Z,5.44
2023-05-18T03:51:57.078Z,5.44
2023-05-18T03:52:29.990Z,5.44
2023-05-18T03:53:04.083Z,5.44
2023-05-18T03:53:37.126Z,5.44
2023-05-18T03:54:09.660Z,5.44
2023-05-18T03:54:44.218Z,5.44
2023-05-18T03:55:17.313Z,5.44
2023-05-18T03:55:50.033Z,5.44
2023-05-18T03:56:24.113Z,5.44
2023-05-18T03:56:57.168Z,5.38
2023-05-18T03:57:30.266Z,5.38
2023-05-18T03:58:03.816Z,5.44
2023-05-18T03:58:38.730Z,5.44
2023-05-18T04:03:34.695Z,5.44
2023-05-18T04:04:07.564Z,5.44
2023-05-18T04:04:49.348Z,5.44
2023-05-18T04:05:23.134Z,5.44
2023-05-18T04:05:56.200Z,5.44
2023-05-18T04:06:30.293Z,5.44
2023-05-18T04:07:06.285Z,5.44
2023-05-18T04:07:44.190Z,5.44
2023-05-18T04:08:17.385Z,5.44
2023-05-18T04:08:51.094Z,5.44
2023-05-18T04:09:24.153Z,5.50
2023-05-18T04:09:57.134Z,5.50
2023-05-18T04:10:32.263Z,5.50
2023-05-18T04:11:04.951Z,5.50
2023-05-18T04:11:37.821Z,5.50
2023-05-18T04:12:11.921Z,5.50
2023-05-18T04:12:44.440Z,5.50
2023-05-18T04:13:17.362Z,5.50
2023-05-18T04:13:52.702Z,5.56
2023-05-18T04:14:28.044Z,5.56
2023-05-18T04:15:00.879Z,5.56
2023-05-18T04:15:33.702Z,5.56
2023-05-18T04:16:07.863Z,5.56
2023-05-18T04:16:40.801Z,5.56
2023-05-18T04:17:13.676Z,5.63
2023-05-18T04:17:47.251Z,5.63
2023-05-18T04:18:19.912Z,5.63
2023-05-18T04:18:53.066Z,5.63
2023-05-18T04:19:27.238Z,5.63
2023-05-18T04:20:04.061Z,5.63
2023-05-18T04:20:38.120Z,5.63
2023-05-18T04:21:11.827Z,5.69
2023-05-18T04:21:47.415Z,5.69
2023-05-18T04:22:20.213Z,5.69
2023-05-18T04:22:53.083Z,5.69
2023-05-18T04:23:28.914Z,5.69
2023-05-18T04:24:07.142Z,5.69
2023-05-18T04:24:41.394Z,5.75
2023-05-18T04:25:16.317Z,5.75
2023-05-18T04:25:49.581Z,5.75
2023-05-18T04:26:25.313Z,5.75
2023-05-18T04:27:01.667Z,5.81
2023-05-18T04:27:35.219Z,5.81
2023-05-18T04:28:09.989Z,5.81
2023-05-18T04:28:53.101Z,5.81
2023-05-18T04:29:41.473Z,5.81
2023-05-18T04:30:40.692Z,5.88
2023-05-18T04:31:16.684Z,5.88
2023-05-18T04:32:21.678Z,5.88
2023-05-18T04:33:38.141Z,5.88
2023-05-18T04:34:37.742Z,5.94
2023-05-18T04:35:42.808Z,5.94
2023-05-18T04:36:21.195Z,6.00
2023-05-18T04:37:03.087Z,6.00
2023-05-18T04:37:45.715Z,6.00
2023-05-18T04:38:42.050Z,6.06
2023-05-18T04:39:35.615Z,6.06
2023-05-18T04:40:27.823Z,6.13
2023-05-18T04:43:26.731Z,6.25
2023-05-18T04:44:10.075Z,6.31
2023-05-18T04:44:53.687Z,6.31
2023-05-18T04:46:03.021Z,6.31
2023-05-18T04:47:36.398Z,6.38
2023-05-18T04:48:06.810Z,6.44
2023-05-18T04:48:46.312Z,6.50
2023-05-18T04:49:48.803Z,6.50
2023-05-18T04:50:48.796Z,6.56
2023-05-18T04:51:47.616Z,6.63
2023-05-18T04:52:41.917Z,6.69
2023-05-18T04:53:20.400Z,6.69
2023-05-18T04:53:57.134Z,6.75
2023-05-18T04:54:40.875Z,6.75
2023-05-18T04:55:45.228Z,6.81
2023-05-18T04:56:32.312Z,6.88
2023-05-18T04:57:16.541Z,6.88
2023-05-18T04:57:59.082Z,6.94
2023-05-18T04:58:39.358Z,6.94
2023-05-18T04:59:37.270Z,6.94
2023-05-18T05:00:41.763Z,7.00
2023-05-18T05:01:31.237Z,7.06
2023-05-18T05:03:22.424Z,7.06
2023-05-18T05:04:26.299Z,7.13
2023-05-18T05:06:20.713Z,7.19
2023-05-18T05:07:19.082Z,7.19
2023-05-18T05:07:56.697Z,7.25
2023-05-18T05:09:01.574Z,7.25
2023-05-18T05:13:41.137Z,7.38
2023-05-18T05:14:43.381Z,7.38
2023-05-18T05:15:22.799Z,7.38
2023-05-18T05:16:09.194Z,7.38
2023-05-18T05:16:57.784Z,7.44
2023-05-18T05:18:34.331Z,7.44
2023-05-18T05:19:21.709Z,7.44
2023-05-18T05:20:53.096Z,7.44
2023-05-18T05:22:53.145Z,7.50
2023-05-18T05:24:04.987Z,7.56
2023-05-18T05:24:46.529Z,7.63
2023-05-18T05:25:36.048Z,7.63
2023-05-18T05:26:39.889Z,7.63
2023-05-18T05:31:25.465Z,7.69
2023-05-18T05:32:14.716Z,7.75
2023-05-18T05:32:57.795Z,7.75
2023-05-18T05:33:36.224Z,7.75
2023-05-18T05:34:14.419Z,7.75
2023-05-18T05:35:22.517Z,7.81
2023-05-18T05:36:34.517Z,7.81
2023-05-18T05:39:47.492Z,8.06
2023-05-18T05:40:26.206Z,8.13
2023-05-18T05:41:26.736Z,8.19
2023-05-18T05:42:16.440Z,8.25
2023-05-18T05:42:59.527Z,8.31
2023-05-18T05:43:35.832Z,8.31
2023-05-18T05:44:23.339Z,8.38
2023-05-18T05:45:06.105Z,8.44
2023-05-18T05:45:55.770Z,8.50
2023-05-18T05:46:38.220Z,8.50
2023-05-18T05:47:32.387Z,8.56
2023-05-18T05:48:14.278Z,8.63
2023-05-18T05:48:52.887Z,8.63
2023-05-18T05:49:51.400Z,8.69
2023-05-18T05:50:33.219Z,8.69
2023-05-18T05:51:11.584Z,8.75
2023-05-18T05:51:45.374Z,8.75
2023-05-18T05:52:19.675Z,8.81
2023-05-18T05:52:54.558Z,8.81
2023-05-18T05:53:44.561Z,8.81
2023-05-18T05:54:21.132Z,8.81
2023-05-18T05:55:11.336Z,8.88
2023-05-18T05:55:53.672Z,8.88
2023-05-18T05:56:32.575Z,8.88
2023-05-18T05:58:15.831Z,8.88
2023-05-18T05:59:00.433Z,8.88
2023-05-18T05:59:48.513Z,8.94
2023-05-18T06:00:31.592Z,8.94
2023-05-18T06:01:13.298Z,8.94
2023-05-18T06:01:49.921Z,9.00
2023-05-18T06:02:55.840Z,8.94
2023-05-18T06:05:14.749Z,9.00
2023-05-18T06:05:52.181Z,9.00
2023-05-18T06:06:51.099Z,9.06
2023-05-18T06:07:55.385Z,9.13
2023-05-18T06:08:33.794Z,9.13
2023-05-18T06:09:15.289Z,9.13
2023-05-18T06:10:00.863Z,9.19
2023-05-18T06:10:34.640Z,9.25
2023-05-18T06:11:09.286Z,9.19
2023-05-18T06:11:50.435Z,9.25
2023-05-18T06:12:24.489Z,9.25
2023-05-18T06:12:57.746Z,9.25
2023-05-18T06:13:38.493Z,9.25
2023-05-18T06:14:12.072Z,9.25
2023-05-18T06:14:46.593Z,9.31
2023-05-18T06:15:24.252Z,9.31
2023-05-18T06:16:01.572Z,9.31
2023-05-18T06:16:37.102Z,9.31
2023-05-18T06:17:14.268Z,9.31
2023-05-18T06:17:49.519Z,9.31
2023-05-18T06:18:23.403Z,9.31
2023-05-18T06:19:21.986Z,9.38
2023-05-18T06:20:08.020Z,9.38
2023-05-18T06:20:46.352Z,9.38
2023-05-18T06:21:22.287Z,9.38
2023-05-18T06:22:01.918Z,9.31
2023-05-18T06:22:43.223Z,9.31
2023-05-18T06:23:50.899Z,9.31
2023-05-18T06:24:47.909Z,9.25
2023-05-18T06:25:54.592Z,9.25
2023-05-18T06:26:48.429Z,9.25
2023-05-18T06:27:46.774Z,9.19
2023-05-18T06:28:49.049Z,9.19
2023-05-18T06:31:17.105Z,9.13
2023-05-18T06:32:04.107Z,9.13
2023-05-18T06:32:58.586Z,9.06
2023-05-18T06:33:46.215Z,9.06
2023-05-18T06:34:25.868Z,9.06
2023-05-18T06:36:10.868Z,9.00
2023-05-18T06:36:53.050Z,9.00
2023-05-18T06:37:50.207Z,9.00
2023-05-18T11:32:29.949Z,13.44
2023-05-18T11:33:11.556Z,13.44
2023-05-18T11:33:44.290Z,13.50
2023-05-18T11:34:39.126Z,13.56
2023-05-18T11:35:24.902Z,13.56
2023-05-18T11:36:03.050Z,13.63
2023-05-18T11:36:46.427Z,13.69
2023-05-18T11:37:34.221Z,13.75
2023-05-18T11:38:12.601Z,13.88
2023-05-18T11:38:53.316Z,13.94
2023-05-18T11:39:27.561Z,14.00
2023-05-18T11:40:02.507Z,14.00
2023-05-18T11:40:50.208Z,14.00
2023-05-18T11:41:30.319Z,14.00
2023-05-18T11:42:06.994Z,14.06
2023-05-18T11:42:39.544Z,14.13
2023-05-18T11:43:20.614Z,14.06
2023-05-18T11:44:06.664Z,14.00
2023-05-18T11:44:40.276Z,14.00
2023-05-18T11:45:15.049Z,14.00
2023-05-18T11:45:55.761Z,13.94
2023-05-18T11:46:31.280Z,13.94
2023-05-18T11:47:08.450Z,13.88
2023-05-18T11:47:41.679Z,13.81
2023-05-18T11:48:14.630Z,13.75
2023-05-18T11:48:48.366Z,13.75
2023-05-18T11:49:23.248Z,13.69
2023-05-18T11:49:58.169Z,13.63
2023-05-18T11:50:31.601Z,13.69
2023-05-18T11:51:09.329Z,13.69
2023-05-18T11:52:07.119Z,13.63
2023-05-18T11:52:52.518Z,13.56
2023-05-18T11:53:26.166Z,13.56
2023-05-18T11:53:58.978Z,13.50
2023-05-18T11:54:38.915Z,13.44
2023-05-18T11:55:14.514Z,13.44
2023-05-18T11:55:48.031Z,13.38
2023-05-18T11:56:21.463Z,13.38
2023-05-18T11:56:56.580Z,13.38
2023-05-18T11:57:41.370Z,13.38
2023-05-18T11:58:19.078Z,13.38
2023-05-18T11:59:12.772Z,13.44
2023-05-18T11:59:46.407Z,13.50
2023-05-18T12:00:21.566Z,13.50
2023-05-18T12:00:57.684Z,13.50
2023-05-18T12:01:31.769Z,13.56
2023-05-18T12:02:06.247Z,13.56
2023-05-18T12:02:39.409Z,13.56
2023-05-18T12:03:13.789Z,13.56
2023-05-18T12:03:48.472Z,13.63
2023-05-18T12:04:21.436Z,13.69
2023-05-18T12:04:56.945Z,13.69
2023-05-18T12:05:31.759Z,13.75
2023-05-18T12:06:06.737Z,13.81
2023-05-18T12:06:40.339Z,13.81
2023-05-18T12:07:13.467Z,13.81
2023-05-18T12:07:53.950Z,13.81
2023-05-18T12:08:29.632Z,13.81
2023-05-18T12:09:03.686Z,13.81
2023-05-18T12:09:37.560Z,13.88
2023-05-18T12:10:12.595Z,13.88
2023-05-18T12:10:47.170Z,13.88
2023-05-18T12:11:19.782Z,13.94
2023-05-18T12:11:52.381Z,13.88
2023-05-18T12:12:26.163Z,13.88
2023-05-18T12:12:58.973Z,13.94
2023-05-18T12:13:31.700Z,13.94
2023-05-18T12:14:06.257Z,13.94
2023-05-18T12:14:41.521Z,13.94
2023-05-18T12:15:17.258Z,13.94
2023-05-18T12:15:51.770Z,14.00
2023-05-18T12:16:25.487Z,14.06
2023-05-18T12:17:02.284Z,14.06
2023-05-18T12:17:41.606Z,14.06
2023-05-18T12:18:15.170Z,14.06
2023-05-18T12:18:50.287Z,14.06
2023-05-18T12:19:23.798Z,14.13
2023-05-18T12:19:57.531Z,14.06
2023-05-18T12:20:31.195Z,14.06
2023-05-18T12:21:07.756Z,14.13
2023-05-18T12:21:42.605Z,14.13
2023-05-18T12:22:15.909Z,14.13
2023-05-18T12:22:54.637Z,14.13
2023-05-18T12:23:37.235Z,14.06
2023-05-18T12:24:09.878Z,14.06
2023-05-18T12:24:44.550Z,13.94
2023-05-18T12:25:17.428Z,13.94
2023-05-18T12:25:50.794Z,13.88
2023-05-18T12:26:26.058Z,13.88
2023-05-18T13:24:09.631Z,13.94
2023-05-18T13:24:42.847Z,14.00
2023-05-18T13:25:16.383Z,14.00
2023-05-18T13:25:49.584Z,13.94
2023-05-18T13:26:27.337Z,13.94
2023-05-18T13:26:59.836Z,13.94
2023-05-18T13:27:32.781Z,13.94
2023-05-18T13:28:07.020Z,13.94
2023-05-18T13:28:39.629Z,13.94
2023-05-18T13:29:12.314Z,14.00
2023-05-18T13:29:46.007Z,14.00
2023-05-18T13:30:18.767Z,14.00
2023-05-18T13:30:52.414Z,14.00
2023-05-18T13:31:25.386Z,13.94
2023-05-18T13:31:58.195Z,13.88
2023-05-18T13:32:31.733Z,13.88
2023-05-18T13:33:08.266Z,13.81
2023-05-18T13:33:42.042Z,13.88
2023-05-18T13:34:14.647Z,13.88
2023-05-18T13:34:47.220Z,13.88
2023-05-18T13:35:21.431Z,13.88
2023-05-18T13:35:54.038Z,13.88
2023-05-18T13:36:29.628Z,13.88
2023-05-18T13:37:02.337Z,13.88
2023-05-18T17:46:26.058Z,14.06
2023-05-18T19:22:00.047Z,11.69
2023-05-18T19:22:34.330Z,11.69
2023-05-18T19:23:07.507Z,11.69
2023-05-18T19:23:42.358Z,11.63
2023-05-18T19:24:16.449Z,11.63
2023-05-18T19:24:52.900Z,11.63
2023-05-18T19:25:26.606Z,11.63
